Time;durP1;ratioP1;P1;durP2;ratioP2;P2;SDS_P1;SDS_P2;PMS_P1;PMS_P2;Temp;Humidity;BMP_temperature;BMP_pressure;BME280_temperature;BME280_humidity;BME280_pressure;Samples;Min_cycle;Max_cycle;Signal;HPM_P1;HPM_P2
2021/06/24 00:00:54;;;;;;;13.15;5.78;;;19.70;99.90;;;;;;5043073;28;20046;-81
2021/06/24 00:03:24;;;;;;;16.17;5.75;;;19.70;99.90;;;;;;5011364;28;20080;-78
2021/06/24 00:05:50;;;;;;;12.57;6.10;;;19.50;99.90;;;;;;5043893;28;20092;-79
2021/06/24 00:08:16;;;;;;;10.98;5.40;;;19.40;99.90;;;;;;5013733;28;20026;-80
2021/06/24 00:10:43;;;;;;;19.25;5.75;;;19.30;99.90;;;;;;5013984;28;20125;-79
2021/06/24 00:13:09;;;;;;;18.63;5.78;;;19.20;99.70;;;;;;5013885;28;20376;-79
2021/06/24 00:15:36;;;;;;;19.35;6.55;;;19.10;99.60;;;;;;5013843;28;20165;-77
2021/06/24 00:18:02;;;;;;;17.40;6.15;;;19.00;99.50;;;;;;5046926;28;20037;-80
2021/06/24 00:20:28;;;;;;;13.32;5.55;;;18.80;99.50;;;;;;5030251;28;20493;-79
2021/06/24 00:22:54;;;;;;;14.70;5.75;;;18.70;99.50;;;;;;5047157;28;20034;-79
2021/06/24 00:25:19;;;;;;;15.50;5.90;;;18.70;99.50;;;;;;5015077;28;20040;-79
2021/06/24 00:27:45;;;;;;;15.00;6.05;;;18.60;99.50;;;;;;5030082;28;20036;-78
2021/06/24 00:30:12;;;;;;;18.23;6.03;;;18.50;99.40;;;;;;5046585;28;20026;-78
2021/06/24 00:32:38;;;;;;;16.30;5.75;;;18.50;99.40;;;;;;5014983;28;20381;-78
2021/06/24 00:35:05;;;;;;;11.90;5.90;;;18.40;99.30;;;;;;5013668;28;20026;-79
2021/06/24 00:37:32;;;;;;;16.15;5.53;;;18.40;99.30;;;;;;5046545;28;20044;-78
2021/06/24 00:39:58;;;;;;;15.52;5.65;;;18.30;99.20;;;;;;5063543;28;20037;-78
2021/06/24 00:42:29;;;;;;;18.88;6.45;;;18.20;99.10;;;;;;5014825;28;20056;-79
2021/06/24 00:44:55;;;;;;;11.57;6.57;;;18.10;99.00;;;;;;5029107;28;20038;-79
2021/06/24 00:47:21;;;;;;;18.65;7.30;;;18.10;98.80;;;;;;5014531;28;20026;-80
2021/06/24 00:49:47;;;;;;;16.63;6.35;;;18.00;98.70;;;;;;5046387;28;20030;-78
2021/06/24 00:52:13;;;;;;;15.18;6.32;;;17.90;98.60;;;;;;5046554;28;20101;-78
2021/06/24 00:54:38;;;;;;;15.93;7.45;;;17.80;98.60;;;;;;5046618;28;20419;-78
2021/06/24 00:57:06;;;;;;;16.65;7.43;;;17.80;98.50;;;;;;5014463;28;20085;-80
2021/06/24 00:59:34;;;;;;;19.52;7.20;;;17.70;98.30;;;;;;5046083;28;20022;-79
2021/06/24 01:02:00;;;;;;;19.98;8.18;;;17.70;98.20;;;;;;5013056;28;20022;-79
2021/06/24 01:04:25;;;;;;;17.88;7.25;;;17.60;98.30;;;;;;5045963;28;20384;-79
2021/06/24 01:06:52;;;;;;;20.48;6.95;;;17.70;98.30;;;;;;5046340;28;20026;-79
2021/06/24 01:09:19;;;;;;;10.93;6.38;;;17.70;98.20;;;;;;5045918;28;20141;-78
2021/06/24 01:11:45;;;;;;;15.23;7.22;;;17.60;98.10;;;;;;5012826;28;20034;-79
2021/06/24 01:14:12;;;;;;;18.85;7.72;;;17.70;98.10;;;;;;5045845;28;20025;-78
2021/06/24 01:16:39;;;;;;;20.10;8.82;;;17.60;97.90;;;;;;5013751;28;20568;-79
2021/06/24 01:19:05;;;;;;;18.23;7.68;;;17.60;97.80;;;;;;5014447;28;20022;-79
2021/06/24 01:21:32;;;;;;;15.95;7.43;;;17.60;97.70;;;;;;5029113;28;20026;-78
2021/06/24 01:23:57;;;;;;;22.15;7.70;;;17.60;97.60;;;;;;5013836;28;20076;-78
2021/06/24 01:26:23;;;;;;;18.58;7.40;;;17.60;97.50;;;;;;5045690;28;20026;-79
2021/06/24 01:28:49;;;;;;;15.32;7.05;;;17.50;97.50;;;;;;5013821;28;20030;-80
2021/06/24 01:31:16;;;;;;;19.20;7.20;;;17.50;97.40;;;;;;5028773;28;20438;-79
2021/06/24 01:33:43;;;;;;;14.15;6.97;;;17.50;97.30;;;;;;5012721;28;20037;-80
2021/06/24 01:36:09;;;;;;;12.50;6.82;;;17.40;97.20;;;;;;5012468;28;20018;-78
2021/06/24 01:38:36;;;;;;;18.85;7.22;;;17.40;97.20;;;;;;5013523;28;20029;-79
2021/06/24 01:41:02;;;;;;;13.60;7.22;;;17.40;97.20;;;;;;5013594;28;20054;-79
2021/06/24 01:43:29;;;;;;;13.70;6.68;;;17.40;97.10;;;;;;5013637;28;20109;-79
2021/06/24 01:45:57;;;;;;;14.18;6.55;;;17.40;97.10;;;;;;5012156;28;20041;-78
2021/06/24 01:48:23;;;;;;;17.88;7.28;;;17.30;97.10;;;;;;5028549;28;20388;-79
2021/06/24 01:50:51;;;;;;;17.13;7.30;;;17.30;96.90;;;;;;5013417;28;20306;-78
2021/06/24 01:53:17;;;;;;;13.90;6.10;;;17.30;96.80;;;;;;5013362;28;20087;-78
2021/06/24 01:55:43;;;;;;;14.35;6.50;;;17.30;96.80;;;;;;5045258;28;20034;-79
2021/06/24 01:58:15;;;;;;;14.10;6.82;;;17.20;96.80;;;;;;5045062;28;20030;-79
2021/06/24 02:00:43;;;;;;;18.90;7.75;;;17.20;96.70;;;;;;5013357;28;20048;-79
2021/06/24 02:03:11;;;;;;;10.80;6.30;;;17.10;96.60;;;;;;5011965;28;20384;-79
2021/06/24 02:05:36;;;;;;;15.38;6.78;;;17.10;96.60;;;;;;5011867;28;20030;-79
2021/06/24 02:08:02;;;;;;;11.88;6.47;;;17.10;96.60;;;;;;5061407;28;20205;-78
2021/06/24 02:10:28;;;;;;;15.80;7.28;;;17.00;96.60;;;;;;5061383;28;20038;-79
2021/06/24 02:12:54;;;;;;;10.50;6.22;;;17.00;96.50;;;;;;5011953;28;20030;-78
2021/06/24 02:15:20;;;;;;;14.98;6.97;;;17.00;96.40;;;;;;5012950;28;20018;-78
2021/06/24 02:17:46;;;;;;;13.27;6.70;;;17.00;96.40;;;;;;5012895;28;20563;-79
2021/06/24 02:20:15;;;;;;;15.15;6.60;;;17.00;96.40;;;;;;5011680;28;20032;-79
2021/06/24 02:22:41;;;;;;;17.20;7.50;;;17.00;96.30;;;;;;5028027;28;20037;-80
2021/06/24 02:25:08;;;;;;;11.40;5.93;;;17.00;96.30;;;;;;5012789;28;20038;-79
2021/06/24 02:27:34;;;;;;;13.95;6.38;;;16.90;96.30;;;;;;5044137;28;20048;-79
2021/06/24 02:30:00;;;;;;;11.43;5.63;;;16.90;96.20;;;;;;5060433;28;20109;-79
2021/06/24 02:32:26;;;;;;;14.88;6.32;;;16.80;96.20;;;;;;5044573;28;20134;-79
2021/06/24 02:34:53;;;;;;;14.13;6.65;;;16.80;96.30;;;;;;5027691;28;20481;-81
2021/06/24 02:37:19;;;;;;;17.35;6.15;;;16.80;96.30;;;;;;5011172;28;20068;-79
2021/06/24 02:39:45;;;;;;;18.25;7.78;;;16.70;96.30;;;;;;5011283;28;20377;-79
2021/06/24 02:42:11;;;;;;;14.38;6.95;;;16.70;96.30;;;;;;5044106;28;20037;-78
2021/06/24 02:44:36;;;;;;;19.65;8.40;;;16.70;96.30;;;;;;5044142;28;20057;-79
2021/06/24 02:47:02;;;;;;;14.70;7.88;;;16.70;96.30;;;;;;5012287;28;20029;-79
2021/06/24 02:49:28;;;;;;;18.50;7.95;;;16.60;96.20;;;;;;5027720;28;20485;-78
2021/06/24 02:51:54;;;;;;;17.17;8.52;;;16.60;96.20;;;;;;5043975;28;20396;-78
2021/06/24 02:54:20;;;;;;;17.33;8.32;;;16.60;96.20;;;;;;5044150;28;20038;-78
2021/06/24 02:56:46;;;;;;;23.38;9.35;;;16.60;96.20;;;;;;5027320;28;20116;-78
2021/06/24 02:59:11;;;;;;;16.98;8.35;;;16.50;96.20;;;;;;5012297;28;20054;-79
2021/06/24 03:01:38;;;;;;;16.23;7.68;;;16.50;96.30;;;;;;5043848;28;20026;-80
2021/06/24 03:04:07;;;;;;;17.92;7.57;;;16.50;96.30;;;;;;5043711;28;20029;-77
2021/06/24 03:06:34;;;;;;;17.20;9.00;;;16.50;96.30;;;;;;5043595;28;20033;-80
2021/06/24 03:09:00;;;;;;;21.55;8.98;;;16.50;96.30;;;;;;5011983;28;20061;-78
2021/06/24 03:11:26;;;;;;;19.70;9.18;;;16.50;96.30;;;;;;5043606;28;20040;-79
2021/06/24 03:13:53;;;;;;;21.05;9.35;;;16.50;96.30;;;;;;5010837;28;20025;-77
2021/06/24 03:16:18;;;;;;;19.98;9.65;;;16.50;96.20;;;;;;5010578;28;20034;-79
2021/06/24 03:18:49;;;;;;;17.95;9.27;;;16.40;96.10;;;;;;5027116;28;20026;-78
2021/06/24 03:21:16;;;;;;;21.33;10.07;;;16.50;96.10;;;;;;5026459;28;20083;-79
2021/06/24 03:23:41;;;;;;;20.30;9.13;;;16.40;96.00;;;;;;5043334;28;20108;-79
2021/06/24 03:26:07;;;;;;;24.02;9.75;;;16.40;96.00;;;;;;5043506;28;20461;-78
2021/06/24 03:28:33;;;;;;;20.55;10.05;;;16.30;96.00;;;;;;5043391;28;20124;-79
2021/06/24 03:30:58;;;;;;;20.80;10.52;;;16.30;96.00;;;;;;5060198;28;20041;-80
2021/06/24 03:33:25;;;;;;;20.67;10.02;;;16.30;96.10;;;;;;5026819;28;20128;-81
2021/06/24 03:35:51;;;;;;;16.65;8.73;;;16.30;96.10;;;;;;5026689;28;20034;-79
2021/06/24 03:38:17;;;;;;;20.65;10.45;;;16.30;96.20;;;;;;5043268;28;20033;-79
2021/06/24 03:40:43;;;;;;;20.20;10.18;;;16.30;96.10;;;;;;5010591;28;20492;-80
2021/06/24 03:43:08;;;;;;;29.20;12.57;;;16.30;96.10;;;;;;5026700;28;20030;-79
2021/06/24 03:45:34;;;;;;;21.73;11.75;;;16.20;96.00;;;;;;5011555;28;20036;-78
2021/06/24 03:48:00;;;;;;;21.83;12.18;;;16.20;95.90;;;;;;5011477;28;20044;-78
2021/06/24 03:50:26;;;;;;;30.33;12.13;;;16.10;95.90;;;;;;5009907;28;20113;-77
2021/06/24 03:52:52;;;;;;;20.98;11.75;;;16.10;96.00;;;;;;5043008;28;20441;-78
2021/06/24 03:55:19;;;;;;;17.55;11.77;;;16.00;96.00;;;;;;5042874;28;20096;-77
2021/06/24 03:57:45;;;;;;;21.20;12.93;;;16.00;96.00;;;;;;5026005;28;20428;-78
2021/06/24 04:00:11;;;;;;;24.52;13.40;;;16.00;96.00;;;;;;5026222;28;20030;-77
2021/06/24 04:02:37;;;;;;;23.15;11.45;;;16.00;96.00;;;;;;5011476;28;20033;-79
2021/06/24 04:05:03;;;;;;;27.75;13.40;;;16.00;96.10;;;;;;5011414;28;20378;-78
2021/06/24 04:07:29;;;;;;;16.30;10.77;;;15.90;96.10;;;;;;5026199;28;20029;-76
2021/06/24 04:09:54;;;;;;;19.23;11.85;;;15.90;96.20;;;;;;5042701;28;20176;-78
2021/06/24 04:12:20;;;;;;;21.70;11.93;;;15.90;96.20;;;;;;5042853;28;20504;-78
2021/06/24 04:14:46;;;;;;;20.05;11.73;;;15.90;96.10;;;;;;5042920;28;20105;-78
2021/06/24 04:17:12;;;;;;;17.98;11.70;;;15.90;96.10;;;;;;5042789;28;20026;-78
2021/06/24 04:19:37;;;;;;;30.77;11.77;;;15.90;96.00;;;;;;5011166;28;20061;-77
2021/06/24 04:22:03;;;;;;;25.90;13.02;;;15.80;96.10;;;;;;5042871;28;20121;-79
2021/06/24 04:24:29;;;;;;;19.80;13.25;;;15.90;96.20;;;;;;5042985;28;20485;-79
2021/06/24 04:26:55;;;;;;;18.15;12.75;;;15.80;96.10;;;;;;5009721;28;20022;-80
2021/06/24 04:29:20;;;;;;;19.83;13.07;;;15.80;96.10;;;;;;5043226;28;20026;-79
2021/06/24 04:31:46;;;;;;;24.13;13.95;;;15.90;96.20;;;;;;5026256;28;20033;-78
2021/06/24 04:34:12;;;;;;;29.48;14.15;;;15.80;96.10;;;;;;5042631;28;20499;-79
2021/06/24 04:36:43;;;;;;;20.77;13.35;;;15.80;96.00;;;;;;5042766;28;20037;-78
2021/06/24 04:39:11;;;;;;;19.85;13.93;;;15.80;95.90;;;;;;5057250;28;20092;-79
2021/06/24 04:41:36;;;;;;;21.27;13.82;;;15.80;96.00;;;;;;5025899;28;20029;-81
2021/06/24 04:44:02;;;;;;;23.63;15.32;;;15.70;96.00;;;;;;5009727;28;20026;-77
2021/06/24 04:46:28;;;;;;;27.23;16.42;;;15.70;96.10;;;;;;5009673;28;20049;-80
2021/06/24 04:48:54;;;;;;;27.15;17.13;;;15.60;96.10;;;;;;5042719;28;20030;-80
2021/06/24 04:51:19;;;;;;;28.58;18.35;;;15.60;96.10;;;;;;5010848;28;20076;-78
2021/06/24 04:53:45;;;;;;;31.80;20.00;;;15.60;96.10;;;;;;5029663;28;20057;-80
2021/06/24 04:56:11;;;;;;;36.92;20.00;;;15.60;96.10;;;;;;5046354;28;20034;-79
2021/06/24 04:58:36;;;;;;;28.20;17.85;;;15.50;96.10;;;;;;5029443;28;20045;-79
2021/06/24 05:01:02;;;;;;;25.10;17.63;;;15.60;96.30;;;;;;5046172;28;20516;-80
2021/06/24 05:03:28;;;;;;;29.98;19.10;;;15.50;96.30;;;;;;5013112;28;20053;-78
2021/06/24 05:05:53;;;;;;;32.30;20.60;;;15.60;96.30;;;;;;5045956;28;20129;-79
2021/06/24 05:08:22;;;;;;;33.35;20.27;;;15.60;96.30;;;;;;5062262;28;20450;-79
2021/06/24 05:10:48;;;;;;;31.90;20.98;;;15.60;96.20;;;;;;5014316;28;20030;-81
2021/06/24 05:13:14;;;;;;;36.13;19.70;;;15.50;96.20;;;;;;5045930;28;20030;-79
2021/06/24 05:15:44;;;;;;;32.00;19.70;;;15.50;96.20;;;;;;5028987;28;20064;-78
2021/06/24 05:18:12;;;;;;;42.58;23.63;;;15.40;96.20;;;;;;5014015;28;20388;-79
2021/06/24 05:20:39;;;;;;;36.10;23.58;;;15.40;96.30;;;;;;5028796;28;20037;-78
2021/06/24 05:23:07;;;;;;;34.67;22.85;;;15.40;96.30;;;;;;5012590;28;20490;-78
2021/06/24 05:25:33;;;;;;;39.55;24.55;;;15.50;96.30;;;;;;5013686;28;20030;-78
2021/06/24 05:27:58;;;;;;;39.72;25.02;;;15.50;96.30;;;;;;5045271;28;20507;-77
2021/06/24 05:30:25;;;;;;;43.92;24.65;;;15.40;96.20;;;;;;5045748;28;20061;-78
2021/06/24 05:32:50;;;;;;;39.45;24.00;;;15.50;96.20;;;;;;5045734;28;20030;-77
2021/06/24 05:35:16;;;;;;;44.67;23.80;;;15.50;96.20;;;;;;5045402;28;20022;-76
2021/06/24 05:37:42;;;;;;;36.72;20.63;;;15.50;96.10;;;;;;5045241;28;20025;-78
2021/06/24 05:40:09;;;;;;;27.95;18.50;;;15.50;96.10;;;;;;5028788;28;20092;-79
2021/06/24 05:42:34;;;;;;;30.25;19.38;;;15.50;96.10;;;;;;5045396;28;20037;-78
2021/06/24 05:45:00;;;;;;;27.02;18.15;;;15.50;96.00;;;;;;5045260;28;20034;-77
2021/06/24 05:47:26;;;;;;;30.77;20.85;;;15.50;95.90;;;;;;5013378;28;20396;-79
2021/06/24 05:49:51;;;;;;;32.40;19.35;;;15.50;95.90;;;;;;5045262;28;20037;-79
2021/06/24 05:52:17;;;;;;;31.98;19.58;;;15.50;95.80;;;;;;5012063;28;20021;-77
2021/06/24 05:54:43;;;;;;;28.98;19.15;;;15.50;95.90;;;;;;5045119;28;20141;-78
2021/06/24 05:57:08;;;;;;;27.75;18.25;;;15.50;95.80;;;;;;5045056;28;20034;-78
2021/06/24 05:59:34;;;;;;;26.08;18.00;;;15.40;95.70;;;;;;5044775;28;20567;-78
2021/06/24 06:02:00;;;;;;;25.85;17.95;;;15.40;95.80;;;;;;5044659;28;20200;-80
2021/06/24 06:04:26;;;;;;;25.02;17.75;;;15.40;95.90;;;;;;5043779;28;20128;-79
2021/06/24 06:06:51;;;;;;;26.27;15.77;;;15.50;96.00;;;;;;5012994;28;20040;-78
2021/06/24 06:09:17;;;;;;;23.05;15.10;;;15.50;96.00;;;;;;5013039;28;20050;-78
2021/06/24 06:11:46;;;;;;;26.23;16.08;;;15.60;95.90;;;;;;5044865;28;20386;-78
2021/06/24 06:14:11;;;;;;;22.52;14.10;;;15.70;95.80;;;;;;5043900;28;20041;-77
2021/06/24 06:16:38;;;;;;;25.48;13.43;;;15.80;95.80;;;;;;5013036;28;20034;-78
2021/06/24 06:19:04;;;;;;;20.48;15.20;;;15.80;95.70;;;;;;5028074;28;20030;-78
2021/06/24 06:21:31;;;;;;;29.98;16.45;;;15.90;95.70;;;;;;5044614;28;20022;-76
2021/06/24 06:23:58;;;;;;;27.83;17.65;;;16.00;95.60;;;;;;5011271;28;20053;-77
2021/06/24 06:26:24;;;;;;;29.23;16.75;;;16.10;95.50;;;;;;5044181;28;20107;-78
2021/06/24 06:28:52;;;;;;;31.25;18.13;;;16.10;95.40;;;;;;5027457;28;20030;-78
2021/06/24 06:31:19;;;;;;;29.60;17.73;;;16.10;95.30;;;;;;5044243;28;20033;-77
2021/06/24 06:33:45;;;;;;;23.90;15.48;;;16.20;95.40;;;;;;5011098;28;20388;-79
2021/06/24 06:36:11;;;;;;;28.60;14.05;;;16.30;95.30;;;;;;5012408;28;20042;-69
2021/06/24 06:38:36;;;;;;;19.90;13.18;;;16.30;95.10;;;;;;5012471;28;20033;-77
2021/06/24 06:41:02;;;;;;;19.25;11.82;;;16.40;95.00;;;;;;5043998;28;20425;-77
2021/06/24 06:43:28;;;;;;;15.32;11.20;;;16.40;94.80;;;;;;5012284;28;20156;-78
2021/06/24 06:45:54;;;;;;;23.80;12.60;;;16.40;94.60;;;;;;5060803;28;20447;-78
2021/06/24 06:48:20;;;;;;;23.70;11.73;;;16.40;94.60;;;;;;5010517;28;20061;-78
2021/06/24 06:50:46;;;;;;;19.10;11.02;;;16.40;94.60;;;;;;5060675;28;20034;-79
2021/06/24 06:53:12;;;;;;;22.90;10.80;;;16.50;94.60;;;;;;5010715;28;20037;-79
2021/06/24 06:55:39;;;;;;;23.75;10.75;;;16.60;94.60;;;;;;5060518;28;20026;-78
2021/06/24 06:58:06;;;;;;;18.75;9.80;;;16.80;94.40;;;;;;5012052;28;20113;-79
2021/06/24 07:00:33;;;;;;;15.65;7.85;;;16.90;94.20;;;;;;5043663;28;20025;-78
2021/06/24 07:03:00;;;;;;;12.82;6.82;;;16.90;93.90;;;;;;5010689;28;20092;-77
2021/06/24 07:05:26;;;;;;;9.02;5.80;;;17.00;94.00;;;;;;5043557;28;20021;-77
2021/06/24 07:07:52;;;;;;;10.68;5.13;;;17.20;93.90;;;;;;5043168;28;20030;-76
2021/06/24 07:10:18;;;;;;;10.15;4.97;;;17.40;93.40;;;;;;5011726;28;20447;-79
2021/06/24 07:12:44;;;;;;;21.58;6.57;;;17.30;92.90;;;;;;5011835;28;20030;-78
2021/06/24 07:15:10;;;;;;;12.88;5.13;;;17.20;93.00;;;;;;5011791;28;20030;-79
2021/06/24 07:17:36;;;;;;;11.73;4.90;;;17.20;93.00;;;;;;5043589;28;20037;-79
2021/06/24 07:20:04;;;;;;;22.70;7.60;;;17.10;92.90;;;;;;5043501;28;20060;-78
2021/06/24 07:22:30;;;;;;;12.15;6.03;;;17.10;92.90;;;;;;5027244;28;20057;-79
2021/06/24 07:24:56;;;;;;;13.35;6.57;;;17.10;92.90;;;;;;5026684;28;20022;-78
2021/06/24 07:27:22;;;;;;;16.27;8.25;;;17.10;92.80;;;;;;5026608;28;20088;-80
2021/06/24 07:29:47;;;;;;;9.68;6.25;;;17.10;92.80;;;;;;5042890;28;20029;-79
2021/06/24 07:32:13;;;;;;;17.95;7.13;;;17.20;92.80;;;;;;5059971;28;20041;-80
2021/06/24 07:34:39;;;;;;;10.15;5.30;;;17.20;92.70;;;;;;5043415;28;20176;-79
2021/06/24 07:37:05;;;;;;;13.77;5.88;;;17.20;92.70;;;;;;5011554;28;20133;-78
2021/06/24 07:39:31;;;;;;;10.75;5.03;;;17.10;92.60;;;;;;5026441;28;20075;-80
2021/06/24 07:41:56;;;;;;;11.77;5.47;;;17.20;92.70;;;;;;5042905;28;20037;-80
2021/06/24 07:44:22;;;;;;;13.02;4.40;;;17.30;92.70;;;;;;5011681;28;20111;-79
2021/06/24 07:46:48;;;;;;;10.43;4.65;;;17.40;92.50;;;;;;5011161;28;20037;-79
2021/06/24 07:49:14;;;;;;;9.57;4.60;;;17.60;92.60;;;;;;5010908;28;20033;-81
2021/06/24 07:51:40;;;;;;;17.88;4.95;;;17.90;92.60;;;;;;5025886;28;20107;-78
2021/06/24 07:54:06;;;;;;;14.48;4.82;;;18.60;92.60;;;;;;5026106;28;20037;-79
2021/06/24 07:56:31;;;;;;;9.02;4.03;;;19.20;91.50;;;;;;5042819;28;20036;-79
2021/06/24 07:58:57;;;;;;;10.65;4.07;;;19.50;90.60;;;;;;5044195;28;20072;-78
2021/06/24 08:01:23;;;;;;;10.82;3.58;;;19.70;89.60;;;;;;5026187;28;20044;-79
2021/06/24 08:03:51;;;;;;;8.35;3.40;;;19.80;89.30;;;;;;5059521;28;20030;-79
2021/06/24 08:06:16;;;;;;;9.10;3.35;;;20.30;89.00;;;;;;5058719;28;20030;-78
2021/06/24 08:08:42;;;;;;;11.52;3.22;;;21.00;88.00;;;;;;5026092;28;20065;-79
2021/06/24 08:11:08;;;;;;;13.82;3.55;;;21.80;86.20;;;;;;5043084;28;20037;-80
2021/06/24 08:13:33;;;;;;;7.57;2.80;;;23.00;84.30;;;;;;5043546;28;20464;-79
2021/06/24 08:15:59;;;;;;;10.02;4.13;;;24.30;80.80;;;;;;5010831;28;20108;-77
2021/06/24 08:18:25;;;;;;;11.15;3.85;;;25.50;76.70;;;;;;5061080;28;20401;-80
2021/06/24 08:20:51;;;;;;;11.18;2.70;;;26.90;73.80;;;;;;5012224;28;20065;-75
2021/06/24 08:23:18;;;;;;;9.27;3.08;;;28.30;69.70;;;;;;5035539;28;20037;-75
2021/06/24 08:25:45;;;;;;;7.25;3.30;;;29.70;67.20;;;;;;5002898;28;20113;-76
2021/06/24 08:28:11;;;;;;;9.75;3.30;;;30.80;63.50;;;;;;5002072;28;20022;-75
2021/06/24 08:30:41;;;;;;;9.85;2.50;;;30.80;60.20;;;;;;5005693;28;20144;-77
2021/06/24 08:33:08;;;;;;;9.23;3.00;;;30.30;57.70;;;;;;5004261;28;20041;-75
2021/06/24 08:35:34;;;;;;;11.90;2.90;;;29.50;56.80;;;;;;5006631;28;20104;-75
2021/06/24 08:37:59;;;;;;;13.43;2.92;;;29.20;57.80;;;;;;5039123;28;20433;-74
2021/06/24 08:40:26;;;;;;;8.98;3.28;;;29.80;58.10;;;;;;5015420;28;20103;-76
2021/06/24 08:42:51;;;;;;;7.07;2.40;;;29.80;56.30;;;;;;5011111;28;20032;-75
2021/06/24 08:45:17;;;;;;;7.63;2.42;;;29.20;55.20;;;;;;5010958;28;20369;-75
2021/06/24 08:47:46;;;;;;;5.95;2.80;;;28.90;55.70;;;;;;4995718;28;20042;-75
2021/06/24 08:50:13;;;;;;;7.32;2.53;;;29.30;55.70;;;;;;4995595;28;20026;-76
2021/06/24 08:52:41;;;;;;;6.43;3.30;;;29.90;55.40;;;;;;4995210;28;20048;-76
2021/06/24 08:55:07;;;;;;;7.68;3.33;;;30.00;54.30;;;;;;5009752;28;20101;-76
2021/06/24 08:57:34;;;;;;;7.57;3.05;;;30.30;53.90;;;;;;4994510;28;20034;-76
2021/06/24 09:00:00;;;;;;;5.97;2.38;;;30.70;53.40;;;;;;4995871;28;20034;-75
2021/06/24 09:02:42;;;;;;;6.53;2.40;;;31.30;52.90;;;;;;5005306;28;20025;-76
2021/06/24 09:05:10;;;;;;;4.78;2.05;;;31.90;51.60;;;;;;5011143;28;20030;-75
2021/06/24 09:07:53;;;;;;;10.48;3.03;;;31.80;50.70;;;;;;5029951;28;20104;-75
2021/06/24 09:10:21;;;;;;;9.55;2.83;;;31.50;50.00;;;;;;5013487;28;20080;-75
2021/06/24 09:12:52;;;;;;;5.70;2.45;;;31.10;50.10;;;;;;5014378;28;20030;-75
2021/06/24 09:15:17;;;;;;;6.97;3.25;;;31.20;50.90;;;;;;5014970;28;20542;-74
2021/06/24 09:17:45;;;;;;;8.98;3.03;;;31.90;51.00;;;;;;5015374;28;20029;-76
2021/06/24 09:20:19;;;;;;;6.72;2.70;;;32.60;50.20;;;;;;5014518;28;20026;-76
2021/06/24 09:23:03;;;;;;;8.55;3.20;;;32.80;48.70;;;;;;5013919;28;20053;-76
2021/06/24 09:25:29;;;;;;;5.60;2.65;;;33.00;48.80;;;;;;5011992;28;20163;-76
2021/06/24 09:27:55;;;;;;;8.32;3.65;;;33.50;48.80;;;;;;5014485;28;20042;-76
2021/06/24 09:30:29;;;;;;;9.95;3.58;;;33.70;48.40;;;;;;5013337;28;20030;-76
2021/06/24 09:32:55;;;;;;;7.30;3.25;;;34.00;47.10;;;;;;5012951;28;20033;-76
2021/06/24 09:35:29;;;;;;;9.05;2.95;;;33.80;47.60;;;;;;5028893;28;20076;-76
2021/06/24 09:38:14;;;;;;;6.30;2.92;;;34.00;47.00;;;;;;5000373;28;20084;-76
2021/06/24 09:40:45;;;;;;;11.45;3.45;;;34.20;46.70;;;;;;5012798;28;20037;-75
2021/06/24 09:43:36;;;;;;;5.93;2.55;;;34.30;46.10;;;;;;5014409;28;20034;-76
2021/06/24 09:46:14;;;;;;;5.75;2.65;;;34.50;45.90;;;;;;5017241;28;20025;-75
2021/06/24 09:48:51;;;;;;;5.78;3.08;;;34.80;45.90;;;;;;5007124;28;20133;-77
2021/06/24 09:51:20;;;;;;;11.55;7.57;;;35.10;45.70;;;;;;5013113;28;20069;-76
2021/06/24 09:53:55;;;;;;;9.20;4.15;;;35.50;45.50;;;;;;5009048;28;20097;-76
2021/06/24 09:56:27;;;;;;;8.10;3.20;;;36.00;45.20;;;;;;5010034;28;20481;-76
2021/06/24 09:58:55;;;;;;;9.07;2.80;;;36.00;44.50;;;;;;5013877;28;20089;-76
2021/06/24 10:01:35;;;;;;;5.32;2.47;;;35.90;44.50;;;;;;5035098;28;20045;-80
2021/06/24 10:04:04;;;;;;;9.25;2.88;;;35.70;44.20;;;;;;5012842;28;20376;-78
2021/06/24 10:06:30;;;;;;;8.43;3.05;;;35.50;44.50;;;;;;5014732;28;20033;-78
2021/06/24 10:08:56;;;;;;;4.55;3.20;;;35.90;45.00;;;;;;5015221;28;20050;-80
2021/06/24 10:11:24;;;;;;;8.82;4.40;;;36.30;44.50;;;;;;5015276;28;20052;-79
2021/06/24 10:13:50;;;;;;;7.57;3.22;;;36.20;44.10;;;;;;5015563;28;20036;-79
2021/06/24 10:16:17;;;;;;;6.13;3.10;;;36.40;44.30;;;;;;5013775;28;20057;-79
2021/06/24 10:18:47;;;;;;;6.75;2.67;;;36.50;43.50;;;;;;5014042;28;20146;-79
2021/06/24 10:21:15;;;;;;;6.18;3.20;;;36.70;43.70;;;;;;5049076;28;20025;-80
2021/06/24 10:23:48;;;;;;;7.13;3.03;;;36.50;43.30;;;;;;5015196;28;20133;-80
2021/06/24 10:26:15;;;;;;;4.97;2.83;;;36.30;43.50;;;;;;5036005;28;20022;-81
2021/06/24 10:28:41;;;;;;;6.18;3.95;;;36.10;43.30;;;;;;5023602;28;20034;-80
2021/06/24 10:31:19;;;;;;;6.03;3.13;;;35.70;43.60;;;;;;5015078;28;20030;-79
2021/06/24 10:33:55;;;;;;;7.93;3.77;;;35.20;43.40;;;;;;5015238;28;20109;-80
2021/06/24 10:36:21;;;;;;;10.48;3.33;;;34.20;43.50;;;;;;5013349;28;20275;-79
2021/06/24 10:38:51;;;;;;;9.07;3.97;;;33.30;44.10;;;;;;5014901;28;20034;-78
2021/06/24 10:41:17;;;;;;;6.72;3.33;;;32.50;44.90;;;;;;5014822;28;20041;-79
2021/06/24 10:43:45;;;;;;;8.80;3.30;;;32.30;45.70;;;;;;5037109;28;20034;-78
2021/06/24 10:46:17;;;;;;;8.57;3.45;;;32.50;46.10;;;;;;5033557;28;20029;-79
2021/06/24 10:48:43;;;;;;;7.70;3.10;;;32.50;45.80;;;;;;5014345;28;20032;-80
2021/06/24 10:51:15;;;;;;;16.10;7.43;;;32.40;46.00;;;;;;5037738;28;20109;-78
2021/06/24 10:53:53;;;;;;;7.40;3.80;;;32.10;46.20;;;;;;5009616;28;20022;-79
2021/06/24 10:56:30;;;;;;;5.57;3.10;;;31.70;46.30;;;;;;5014027;28;20088;-79
2021/06/24 10:58:58;;;;;;;6.95;3.22;;;31.00;46.50;;;;;;5035390;28;20086;-77
2021/06/24 11:01:43;;;;;;;18.55;3.72;;;30.30;47.30;;;;;;5013380;28;20029;-80
2021/06/24 11:04:30;;;;;;;6.70;3.30;;;29.90;48.30;;;;;;5014614;28;20030;-79
2021/06/24 11:06:57;;;;;;;9.30;4.40;;;29.90;48.90;;;;;;5029672;28;20058;-80
2021/06/24 11:09:23;;;;;;;11.00;4.15;;;29.90;48.90;;;;;;5012565;28;20056;-79
2021/06/24 11:11:49;;;;;;;8.00;3.53;;;29.70;48.60;;;;;;5012352;28;20113;-79
2021/06/24 11:14:18;;;;;;;4.53;3.20;;;29.40;48.90;;;;;;4995978;28;20073;-80
2021/06/24 11:16:44;;;;;;;9.32;3.47;;;29.20;49.20;;;;;;5012938;28;20037;-77
2021/06/24 11:19:14;;;;;;;5.28;2.88;;;28.90;49.30;;;;;;5013175;28;20060;-77
2021/06/24 11:21:40;;;;;;;6.10;3.40;;;28.50;49.70;;;;;;5040544;28;20059;-79
2021/06/24 11:24:05;;;;;;;7.43;3.42;;;28.10;50.20;;;;;;5043238;28;20130;-80
2021/06/24 11:26:44;;;;;;;9.80;3.70;;;27.80;50.90;;;;;;5028836;28;20049;-76
2021/06/24 11:29:37;;;;;;;6.00;3.45;;;27.40;51.50;;;;;;5013486;28;20449;-77
2021/06/24 11:32:32;;;;;;;8.20;2.90;;;27.30;52.10;;;;;;5013960;28;20453;-77
2021/06/24 11:37:34;;;;;;;5.65;2.95;;;27.40;52.40;;;;;;4996533;28;20140;-78
2021/06/24 11:40:03;;;;;;;7.72;3.05;;;27.40;52.60;;;;;;5013486;28;20037;-78
2021/06/24 11:42:37;;;;;;;15.32;4.20;;;27.30;52.60;;;;;;5013436;28;20076;-79
2021/06/24 11:45:05;;;;;;;9.52;4.55;;;27.20;52.80;;;;;;5012856;28;20026;-77
2021/06/24 11:47:33;;;;;;;7.82;3.40;;;27.10;53.20;;;;;;5013933;28;20097;-78
2021/06/24 12:04:02;;;;;;;8.48;4.28;;;26.50;54.20;;;;;;5017524;28;20026;-79
2021/06/24 12:06:50;;;;;;;12.73;3.90;;;26.30;54.60;;;;;;5016787;28;20072;-80
2021/06/24 12:09:21;;;;;;;5.93;4.35;;;26.00;55.00;;;;;;5009008;28;20049;-80
2021/06/24 12:11:48;;;;;;;12.52;5.00;;;25.90;55.40;;;;;;4998697;28;20495;-78
2021/06/24 12:14:34;;;;;;;8.27;4.60;;;25.70;55.80;;;;;;4996767;28;20393;-79
2021/06/24 12:17:22;;;;;;;13.20;4.97;;;25.60;56.40;;;;;;5012073;28;20026;-78
2021/06/24 12:19:49;;;;;;;9.13;4.07;;;25.80;56.50;;;;;;4997187;28;20041;-77
2021/06/24 12:22:40;;;;;;;7.55;3.70;;;25.90;56.40;;;;;;5012196;28;20104;-78
2021/06/24 12:25:20;;;;;;;8.45;4.35;;;25.80;56.30;;;;;;4996617;28;20134;-78
2021/06/24 12:27:47;;;;;;;9.63;4.47;;;25.60;56.60;;;;;;4997079;28;20184;-78
2021/06/24 12:30:23;;;;;;;7.78;3.78;;;25.40;56.80;;;;;;4996348;28;20359;-79
2021/06/24 12:32:53;;;;;;;8.45;4.22;;;25.10;57.20;;;;;;5012182;28;20023;-79
2021/06/24 12:35:23;;;;;;;10.15;4.93;;;24.90;57.70;;;;;;5028600;28;20124;-78
2021/06/24 12:37:50;;;;;;;9.32;5.10;;;24.70;58.10;;;;;;5028669;28;20019;-78
2021/06/24 12:40:19;;;;;;;6.63;3.88;;;24.50;58.40;;;;;;5011626;28;20468;-76
2021/06/24 12:42:47;;;;;;;5.35;3.83;;;24.30;58.90;;;;;;5020559;28;20069;-81
2021/06/24 12:45:16;;;;;;;6.35;4.13;;;24.10;59.30;;;;;;5012261;28;20375;-78
2021/06/24 12:47:44;;;;;;;6.45;4.10;;;24.00;59.80;;;;;;4997089;28;20026;-80
2021/06/24 12:50:20;;;;;;;8.90;4.60;;;23.90;60.10;;;;;;4995894;28;20037;-80
2021/06/24 12:52:48;;;;;;;8.50;5.85;;;23.80;60.60;;;;;;4997881;28;20026;-79
2021/06/24 12:55:41;;;;;;;6.70;3.97;;;24.00;61.20;;;;;;5011681;28;20503;-79
2021/06/24 12:58:10;;;;;;;7.03;3.70;;;24.20;60.80;;;;;;5011104;28;20062;-81